createdAt,value
2023-03-29T00:02:07.301Z,25.80
2023-03-29T00:04:34.381Z,23.40
2023-03-29T00:07:04.698Z,24.93
2023-03-29T00:09:33.300Z,23.97
2023-03-29T00:12:00.993Z,22.83
2023-03-29T00:14:30.346Z,23.63
2023-03-29T00:16:57.598Z,25.23
2023-03-29T00:19:24.504Z,24.63
2023-03-29T00:21:51.276Z,26.27
2023-03-29T00:24:18.086Z,24.07
2023-03-29T00:26:44.884Z,25.83
2023-03-29T00:29:11.823Z,24.47
2023-03-29T00:31:38.610Z,24.33
2023-03-29T00:34:05.499Z,25.70
2023-03-29T00:36:32.299Z,24.23
2023-03-29T00:38:59.059Z,25.77
2023-03-29T00:41:27.160Z,25.07
2023-03-29T00:43:59.796Z,24.13
2023-03-29T00:46:28.952Z,26.10
2023-03-29T00:49:02.544Z,23.63
2023-03-29T00:51:32.845Z,24.70
2023-03-29T00:54:03.807Z,25.37
2023-03-29T00:56:37.778Z,23.27
2023-03-29T00:59:10.049Z,22.80
2023-03-29T01:01:42.028Z,23.57
2023-03-29T01:04:32.419Z,23.73
2023-03-29T01:07:42.927Z,23.43
2023-03-29T01:10:15.498Z,23.97
2023-03-29T01:12:56.357Z,24.73
2023-03-29T01:15:27.141Z,23.90
2023-03-29T01:17:58.035Z,24.87
2023-03-29T01:20:51.015Z,23.00
2023-03-29T01:23:28.352Z,24.53
2023-03-29T01:26:16.927Z,23.70
2023-03-29T01:29:04.732Z,22.83
2023-03-29T01:31:36.978Z,23.77
2023-03-29T01:34:15.030Z,23.10
2023-03-29T01:36:54.792Z,22.43
2023-03-29T01:39:22.019Z,24.20
2023-03-29T01:42:17.629Z,22.93
2023-03-29T01:44:52.746Z,23.93
2023-03-29T01:47:47.773Z,23.00
2023-03-29T01:50:21.415Z,21.53
2023-03-29T01:52:59.714Z,22.07
2023-03-29T01:55:32.273Z,22.00
2023-03-29T01:58:01.249Z,24.23
2023-03-29T02:00:29.566Z,23.17
2023-03-29T02:03:03.291Z,22.93
2023-03-29T02:05:31.650Z,24.17
2023-03-29T02:08:01.479Z,23.20
2023-03-29T02:10:29.800Z,23.87
2023-03-29T02:12:56.610Z,22.97
2023-03-29T02:15:23.667Z,24.90
2023-03-29T02:17:51.373Z,24.33
2023-03-29T02:20:32.298Z,23.00
2023-03-29T02:23:02.433Z,25.00
2023-03-29T02:25:29.639Z,25.13
2023-03-29T02:27:57.289Z,23.37
2023-03-29T02:30:30.167Z,23.97
2023-03-29T02:33:06.881Z,23.87
2023-03-29T02:35:41.499Z,24.60
2023-03-29T02:38:14.684Z,24.40
2023-03-29T02:40:42.893Z,23.07
2023-03-29T02:43:11.582Z,24.67
2023-03-29T02:45:39.909Z,23.80
2023-03-29T02:48:10.170Z,24.23
2023-03-29T02:50:42.533Z,23.60
2023-03-29T02:53:24.192Z,23.90
2023-03-29T02:55:52.839Z,25.67
2023-03-29T02:58:20.807Z,24.47
2023-03-29T03:00:48.941Z,25.90
2023-03-29T03:03:16.001Z,23.50
2023-03-29T03:05:46.014Z,24.37
2023-03-29T03:08:14.030Z,25.87
2023-03-29T03:10:41.033Z,25.00
2023-03-29T03:13:07.903Z,24.60
2023-03-29T03:15:42.555Z,24.50
2023-03-29T03:18:10.586Z,24.07
2023-03-29T03:20:37.467Z,24.00
2023-03-29T03:23:04.291Z,24.20
2023-03-29T03:25:32.364Z,25.03
2023-03-29T03:27:59.488Z,25.03
2023-03-29T03:30:27.152Z,24.07
2023-03-29T03:33:12.842Z,24.80
2023-03-29T03:36:02.830Z,25.77
2023-03-29T03:38:31.000Z,27.70
2023-03-29T03:41:01.266Z,23.50
2023-03-29T03:43:31.999Z,25.00
2023-03-29T03:45:59.078Z,26.23
2023-03-29T03:48:26.321Z,23.47
2023-03-29T03:51:04.827Z,23.90
2023-03-29T03:53:33.993Z,23.43
2023-03-29T03:56:09.094Z,26.43
2023-03-29T03:58:51.633Z,24.53
2023-03-29T04:01:20.137Z,25.40
2023-03-29T04:03:58.736Z,26.77
2023-03-29T04:06:26.219Z,25.27
2023-03-29T04:09:12.860Z,24.23
2023-03-29T04:11:43.014Z,23.23
2023-03-29T04:14:11.806Z,25.13
2023-03-29T04:17:03.134Z,25.27
2023-03-29T04:19:57.614Z,24.93
2023-03-29T04:22:27.216Z,24.43
2023-03-29T04:24:54.353Z,24.10
2023-03-29T04:27:53.576Z,24.87
2023-03-29T04:30:40.075Z,25.73
2023-03-29T04:33:07.169Z,24.70
2023-03-29T04:35:35.935Z,24.73
2023-03-29T04:38:04.303Z,25.53
2023-03-29T04:40:31.675Z,24.13
2023-03-29T04:43:34.368Z,26.43
2023-03-29T04:46:11.559Z,24.87
2023-03-29T04:48:59.194Z,24.33
2023-03-29T04:51:34.435Z,25.43
2023-03-29T04:54:01.742Z,23.43
2023-03-29T04:56:28.982Z,25.00
2023-03-29T04:59:34.444Z,24.63
2023-03-29T05:02:05.258Z,25.37
2023-03-29T05:04:32.989Z,25.53
2023-03-29T05:07:06.662Z,27.93
2023-03-29T05:09:35.634Z,25.67
2023-03-29T05:12:04.570Z,25.00
2023-03-29T05:14:42.847Z,24.60
2023-03-29T05:17:09.699Z,24.87
2023-03-29T05:19:37.346Z,25.43
2023-03-29T05:22:04.485Z,25.67
2023-03-29T05:24:32.387Z,27.23
2023-03-29T05:27:04.914Z,25.73
2023-03-29T05:29:34.552Z,26.80
2023-03-29T05:32:28.227Z,25.47
2023-03-29T05:34:55.417Z,24.53
2023-03-29T05:37:22.325Z,24.63
2023-03-29T05:40:06.190Z,25.13
2023-03-29T05:42:37.880Z,25.37
2023-03-29T05:45:08.744Z,23.93
2023-03-29T05:47:36.160Z,24.93
2023-03-29T05:50:03.475Z,24.73
2023-03-29T05:52:30.902Z,25.20
2023-03-29T05:54:57.796Z,26.00
2023-03-29T05:57:25.952Z,26.60
2023-03-29T05:59:53.241Z,24.57
2023-03-29T06:02:20.148Z,24.63
2023-03-29T06:04:51.998Z,26.07
2023-03-29T06:07:25.434Z,24.23
2023-03-29T06:10:11.975Z,26.63
2023-03-29T06:12:42.856Z,25.93
2023-03-29T06:15:10.357Z,25.17
2023-03-29T06:17:50.012Z,24.83
2023-03-29T06:20:17.148Z,25.47
2023-03-29T06:22:48.526Z,24.80
2023-03-29T06:25:17.499Z,25.00
2023-03-29T06:27:47.399Z,24.87
2023-03-29T06:30:16.911Z,25.10
2023-03-29T06:32:50.539Z,24.83
2023-03-29T06:35:31.785Z,26.70
2023-03-29T06:38:05.612Z,24.87
2023-03-29T06:40:52.760Z,26.47
2023-03-29T06:43:22.068Z,26.23
2023-03-29T06:46:11.602Z,24.73
2023-03-29T06:48:53.304Z,25.80
2023-03-29T06:51:23.375Z,24.97
2023-03-29T06:53:51.200Z,25.60
2023-03-29T06:56:18.524Z,27.30
2023-03-29T06:58:48.590Z,26.60
2023-03-29T07:01:43.143Z,27.60
2023-03-29T07:04:17.646Z,26.63
2023-03-29T07:07:19.771Z,26.83
2023-03-29T07:09:54.088Z,25.80
2023-03-29T07:12:40.968Z,26.13
2023-03-29T07:15:09.530Z,24.77
2023-03-29T07:18:00.113Z,25.63
2023-03-29T07:20:27.179Z,25.63
2023-03-29T07:23:08.119Z,26.50
2023-03-29T07:25:35.296Z,27.30
2023-03-29T07:28:02.625Z,25.93
2023-03-29T07:30:32.400Z,27.03
2023-03-29T07:33:26.324Z,27.43
2023-03-29T07:35:57.238Z,26.23
2023-03-29T07:38:25.196Z,26.40
2023-03-29T07:40:58.616Z,25.47
2023-03-29T07:43:44.123Z,26.33
2023-03-29T07:46:12.935Z,27.37
2023-03-29T07:48:40.270Z,28.97
2023-03-29T07:51:13.098Z,30.13
2023-03-29T07:53:44.756Z,27.90
2023-03-29T07:56:34.357Z,29.50
2023-03-29T07:59:21.598Z,28.90
2023-03-29T08:02:01.219Z,29.73
2023-03-29T08:04:38.458Z,28.67
2023-03-29T08:07:21.926Z,27.83
2023-03-29T08:10:11.131Z,29.27
2023-03-29T08:12:54.564Z,29.77
2023-03-29T08:15:28.762Z,31.50
2023-03-29T08:17:55.995Z,29.70
2023-03-29T08:20:22.956Z,29.10
2023-03-29T08:22:55.003Z,29.47
2023-03-29T08:25:51.633Z,30.63
2023-03-29T08:28:18.558Z,30.87
2023-03-29T08:30:50.018Z,29.43
2023-03-29T08:33:17.265Z,28.97
2023-03-29T08:35:47.491Z,30.07
2023-03-29T08:38:34.662Z,31.80
2023-03-29T08:41:01.943Z,28.17
2023-03-29T08:43:56.339Z,29.73
2023-03-29T08:46:42.261Z,28.40
2023-03-29T08:49:32.874Z,29.17
2023-03-29T08:52:11.923Z,30.43
2023-03-29T08:54:45.023Z,30.93
2023-03-29T08:57:40.879Z,29.33
2023-03-29T09:00:43.256Z,28.97
2023-03-29T09:03:32.020Z,28.37
2023-03-29T09:06:07.627Z,29.87
2023-03-29T09:08:40.236Z,29.60
2023-03-29T09:11:23.217Z,29.47
2023-03-29T09:14:23.285Z,29.80
2023-03-29T09:17:08.379Z,31.30
2023-03-29T09:19:44.164Z,30.07
2023-03-29T09:22:43.516Z,29.83
2023-03-29T09:25:14.568Z,30.43
2023-03-29T09:28:04.984Z,29.73
2023-03-29T09:30:54.137Z,30.17
2023-03-29T09:33:32.336Z,29.97
2023-03-29T09:36:36.431Z,30.30
2023-03-29T09:39:05.191Z,31.33
2023-03-29T09:41:43.991Z,30.23
2023-03-29T09:44:29.848Z,28.70
2023-03-29T09:47:08.578Z,31.30
2023-03-29T09:49:45.673Z,32.37
2023-03-29T09:52:16.570Z,32.93
2023-03-29T09:54:50.191Z,31.77
2023-03-29T09:57:38.169Z,31.20
2023-03-29T10:00:06.391Z,31.33
2023-03-29T10:02:40.925Z,33.40
2023-03-29T10:05:16.296Z,30.60
2023-03-29T10:07:52.975Z,30.70
2023-03-29T10:10:30.613Z,31.43
2023-03-29T10:13:01.484Z,31.50
2023-03-29T10:15:30.577Z,31.40
2023-03-29T10:18:10.975Z,31.70
2023-03-29T10:20:40.218Z,32.43
2023-03-29T10:23:09.079Z,31.17
2023-03-29T10:25:42.642Z,32.50
2023-03-29T10:28:22.623Z,32.40
2023-03-29T10:30:55.099Z,32.10
2023-03-29T10:33:24.651Z,32.73
2023-03-29T10:35:52.038Z,34.00
2023-03-29T10:38:24.975Z,35.37
2023-03-29T10:40:53.369Z,37.20
2023-03-29T10:43:20.204Z,45.80
2023-03-29T10:45:52.600Z,40.47
2023-03-29T10:48:25.279Z,37.50
2023-03-29T10:50:54.844Z,35.47
2023-03-29T10:53:32.440Z,38.43
2023-03-29T10:56:11.123Z,38.87
2023-03-29T10:58:37.886Z,34.87
2023-03-29T11:01:05.713Z,36.23
2023-03-29T11:03:47.753Z,36.07
2023-03-29T11:06:27.107Z,35.87
2023-03-29T11:08:58.641Z,34.47
2023-03-29T11:11:37.614Z,36.30
2023-03-29T11:14:35.669Z,35.07
2023-03-29T11:17:20.937Z,35.57
2023-03-29T11:19:55.271Z,35.67
2023-03-29T11:22:51.499Z,33.83
2023-03-29T11:25:49.148Z,32.73
2023-03-29T11:28:29.357Z,34.77
2023-03-29T11:31:20.042Z,33.87
2023-03-29T11:34:08.011Z,34.47
2023-03-29T11:36:57.826Z,33.77
2023-03-29T11:39:56.188Z,33.17
2023-03-29T11:42:29.242Z,34.67
2023-03-29T11:44:58.810Z,35.67
2023-03-29T11:47:35.074Z,32.80
2023-03-29T11:50:08.301Z,33.90
2023-03-29T11:52:51.318Z,34.50
2023-03-29T11:55:26.149Z,36.13
2023-03-29T11:58:07.820Z,34.60
2023-03-29T12:00:40.240Z,36.73
2023-03-29T12:03:10.315Z,39.23
2023-03-29T12:05:44.397Z,39.77
2023-03-29T12:08:20.218Z,39.50
2023-03-29T12:11:07.254Z,38.57
2023-03-29T12:13:43.978Z,38.37
2023-03-29T12:16:44.409Z,39.10
2023-03-29T12:19:45.310Z,38.10
2023-03-29T12:22:12.090Z,39.80
2023-03-29T12:24:46.998Z,39.50
2023-03-29T12:27:29.160Z,39.27
2023-03-29T12:30:13.081Z,39.20
2023-03-29T12:33:15.124Z,38.50
2023-03-29T12:35:58.955Z,38.43
2023-03-29T12:38:45.376Z,39.43
2023-03-29T12:41:37.091Z,42.33
2023-03-29T12:44:23.942Z,41.73
2023-03-29T12:46:59.193Z,40.90
2023-03-29T12:49:36.081Z,40.43
2023-03-29T12:52:13.608Z,39.27
2023-03-29T12:54:40.582Z,38.87
2023-03-29T12:57:25.621Z,38.67
2023-03-29T12:59:52.643Z,43.83
2023-03-29T13:02:19.402Z,42.73
2023-03-29T13:04:55.930Z,42.10
2023-03-29T13:07:22.911Z,41.07
2023-03-29T13:10:07.760Z,38.87
2023-03-29T13:12:43.433Z,36.43
2023-03-29T13:15:18.999Z,36.30
2023-03-29T13:17:58.527Z,35.57
2023-03-29T13:20:59.047Z,38.13
2023-03-29T13:23:51.635Z,38.23
2023-03-29T13:26:21.910Z,41.33
2023-03-29T13:29:13.809Z,38.80
2023-03-29T13:31:50.349Z,38.50
2023-03-29T13:34:36.684Z,38.20
2023-03-29T13:37:30.907Z,38.00
2023-03-29T13:39:58.099Z,39.87
2023-03-29T13:42:32.776Z,39.60
2023-03-29T13:45:23.825Z,39.27
2023-03-29T13:48:19.470Z,39.23
2023-03-29T13:50:54.327Z,40.83
2023-03-29T13:53:39.331Z,40.43
2023-03-29T13:56:11.014Z,38.70
2023-03-29T13:59:03.690Z,39.37
2023-03-29T14:01:46.739Z,39.73
2023-03-29T14:04:24.166Z,40.80
2023-03-29T14:06:53.980Z,40.27
2023-03-29T14:09:26.062Z,41.30
2023-03-29T14:11:53.160Z,41.17
2023-03-29T14:14:24.923Z,39.97
2023-03-29T14:16:54.123Z,37.90
2023-03-29T14:19:42.039Z,38.07
2023-03-29T14:22:13.124Z,38.17
2023-03-29T14:24:48.046Z,39.05
2023-03-29T14:27:16.090Z,38.50
2023-03-29T14:29:49.646Z,38.47
2023-03-29T14:32:27.666Z,38.40
2023-03-29T14:34:54.635Z,39.00
2023-03-29T14:37:26.485Z,37.73
2023-03-29T14:39:53.924Z,38.67
2023-03-29T14:42:29.739Z,37.40
2023-03-29T14:45:04.393Z,36.53
2023-03-29T14:47:33.716Z,36.40
2023-03-29T14:50:01.749Z,37.13
2023-03-29T14:52:30.444Z,37.17
2023-03-29T14:55:00.601Z,34.13
2023-03-29T14:57:32.940Z,32.70
2023-03-29T15:00:07.925Z,34.30
2023-03-29T15:02:34.881Z,33.07
2023-03-29T15:05:28.857Z,34.17
2023-03-29T15:07:56.327Z,32.57
2023-03-29T15:10:23.616Z,32.87
2023-03-29T15:12:51.151Z,31.83
2023-03-29T15:15:18.542Z,35.17
2023-03-29T15:17:50.934Z,33.67
2023-03-29T15:20:24.057Z,33.57
2023-03-29T15:22:56.700Z,35.60
2023-03-29T15:25:37.281Z,30.83
2023-03-29T15:28:04.677Z,31.53
2023-03-29T15:30:39.490Z,32.13
2023-03-29T15:33:14.985Z,30.50
2023-03-29T15:35:45.799Z,30.03
2023-03-29T15:38:13.100Z,30.50
2023-03-29T15:40:40.297Z,31.30
2023-03-29T15:43:07.737Z,32.00
2023-03-29T15:45:34.875Z,30.30
2023-03-29T15:48:04.820Z,30.07
2023-03-29T15:50:32.547Z,29.80
2023-03-29T15:53:08.679Z,29.53
2023-03-29T15:55:47.607Z,30.30
2023-03-29T15:58:20.689Z,29.33
2023-03-29T16:01:11.011Z,28.53
2023-03-29T16:03:39.348Z,29.80
2023-03-29T16:06:07.364Z,29.67
2023-03-29T16:08:34.217Z,29.07
2023-03-29T16:11:01.166Z,28.33
2023-03-29T16:13:27.988Z,30.20
2023-03-29T16:15:55.056Z,29.07
2023-03-29T16:18:22.209Z,29.93
2023-03-29T16:20:49.081Z,29.73
2023-03-29T16:23:16.407Z,30.00
2023-03-29T16:25:43.446Z,28.93
2023-03-29T16:28:10.272Z,31.40
2023-03-29T16:30:38.344Z,28.83
2023-03-29T16:33:08.236Z,29.67
2023-03-29T16:35:42.369Z,28.73
2023-03-29T16:38:09.316Z,27.73
2023-03-29T16:40:37.142Z,28.20
2023-03-29T16:43:04.580Z,28.63
2023-03-29T16:45:31.670Z,28.37
2023-03-29T16:47:58.605Z,28.77
2023-03-29T16:50:25.627Z,29.47
2023-03-29T16:52:52.754Z,31.47
2023-03-29T16:55:20.077Z,30.20
2023-03-29T16:57:47.878Z,31.07
2023-03-29T17:00:17.001Z,31.07
2023-03-29T17:02:44.620Z,29.80
2023-03-29T17:05:12.726Z,29.90
2023-03-29T17:07:40.185Z,30.30
2023-03-29T17:10:11.691Z,29.87
2023-03-29T17:12:38.679Z,31.97
2023-03-29T17:15:07.594Z,30.80
2023-03-29T17:17:35.310Z,30.93
2023-03-29T17:20:02.256Z,30.00
2023-03-29T17:22:29.063Z,30.33
2023-03-29T17:24:55.889Z,29.93
2023-03-29T17:27:22.766Z,30.37
2023-03-29T17:29:49.860Z,30.63
2023-03-29T17:32:16.657Z,29.63
2023-03-29T17:34:43.414Z,29.90
2023-03-29T17:37:10.289Z,30.50
2023-03-29T17:39:37.781Z,31.20
2023-03-29T17:42:05.614Z,31.73
2023-03-29T17:44:33.463Z,30.43
2023-03-29T17:47:01.153Z,29.73
2023-03-29T17:49:28.419Z,30.67
2023-03-29T17:51:55.497Z,30.67
2023-03-29T17:54:22.449Z,30.30
2023-03-29T17:56:50.507Z,31.30
2023-03-29T17:59:17.965Z,30.47
2023-03-29T18:01:44.815Z,30.90
2023-03-29T18:04:11.688Z,33.40
2023-03-29T18:06:38.565Z,31.20
2023-03-29T18:09:05.595Z,32.97
2023-03-29T18:11:32.504Z,31.40
2023-03-29T18:14:00.774Z,32.23
2023-03-29T18:16:27.583Z,32.87
2023-03-29T18:18:54.515Z,32.50
2023-03-29T18:21:21.957Z,33.47
2023-03-29T18:23:49.942Z,31.93
2023-03-29T18:26:17.432Z,31.53
2023-03-29T18:28:48.357Z,32.97
2023-03-29T18:31:16.059Z,32.70
2023-03-29T18:33:43.071Z,34.60
2023-03-29T18:36:13.139Z,34.10
2023-03-29T18:38:43.322Z,32.43
2023-03-29T18:41:12.454Z,32.60
2023-03-29T18:43:40.985Z,33.53
2023-03-29T18:46:08.629Z,31.60
2023-03-29T18:48:38.832Z,32.47
2023-03-29T18:51:07.473Z,33.93
2023-03-29T18:53:38.757Z,32.27
2023-03-29T18:56:06.575Z,32.70
2023-03-29T18:58:34.025Z,32.30
2023-03-29T19:01:03.661Z,30.63
2023-03-29T19:03:31.894Z,32.90
2023-03-29T19:05:58.881Z,30.10
2023-03-29T19:08:26.334Z,29.83
2023-03-29T19:10:59.975Z,30.20
2023-03-29T19:13:27.112Z,31.67
2023-03-29T19:15:53.978Z,29.77
2023-03-29T19:18:21.574Z,28.97
2023-03-29T19:20:51.238Z,28.70
2023-03-29T19:23:18.413Z,29.50
2023-03-29T19:25:52.798Z,30.10
2023-03-29T19:28:19.922Z,28.97
2023-03-29T19:30:46.727Z,29.17
2023-03-29T19:33:14.518Z,29.30
2023-03-29T19:35:41.786Z,29.73
2023-03-29T19:38:08.951Z,29.63
2023-03-29T19:40:36.533Z,31.23
2023-03-29T19:43:03.904Z,29.27
2023-03-29T19:45:30.732Z,29.77
2023-03-29T19:48:02.545Z,29.10
2023-03-29T19:50:32.063Z,29.57
2023-03-29T19:52:58.916Z,29.80
2023-03-29T19:55:26.754Z,29.20
2023-03-29T19:57:53.625Z,28.97
2023-03-29T20:00:24.414Z,29.73
2023-03-29T20:02:56.490Z,29.90
2023-03-29T20:05:24.121Z,32.47
2023-03-29T20:07:51.471Z,31.53
2023-03-29T20:10:18.488Z,32.07
2023-03-29T20:12:45.291Z,31.77
2023-03-29T20:15:12.151Z,33.53
2023-03-29T20:17:40.921Z,31.07
2023-03-29T20:20:10.190Z,33.60
2023-03-29T20:22:41.993Z,32.83
2023-03-29T20:25:12.142Z,32.97
2023-03-29T20:27:40.900Z,36.03
2023-03-29T20:30:09.234Z,34.97
2023-03-29T20:32:36.073Z,36.90
2023-03-29T20:35:02.977Z,36.00
2023-03-29T20:37:29.752Z,35.73
2023-03-29T20:39:56.765Z,34.77
2023-03-29T20:42:28.541Z,34.63
2023-03-29T20:44:56.497Z,35.50
2023-03-29T20:47:24.647Z,35.67
2023-03-29T20:49:54.205Z,34.47
2023-03-29T20:52:22.463Z,34.57
2023-03-29T20:54:49.511Z,34.03
2023-03-29T20:57:19.669Z,35.47
2023-03-29T20:59:48.965Z,32.70
2023-03-29T21:02:21.988Z,34.30
2023-03-29T21:04:53.227Z,32.50
2023-03-29T21:07:21.699Z,32.20
2023-03-29T21:09:49.920Z,31.17
2023-03-29T21:12:17.439Z,32.57
2023-03-29T21:14:44.769Z,33.53
2023-03-29T21:17:11.655Z,31.47
2023-03-29T21:19:39.461Z,31.77
2023-03-29T21:22:06.722Z,30.70
2023-03-29T21:24:33.898Z,32.73
2023-03-29T21:27:00.732Z,31.83
2023-03-29T21:29:27.883Z,32.20
2023-03-29T21:31:55.238Z,30.33
2023-03-29T21:34:22.216Z,30.93
2023-03-29T21:36:49.573Z,31.63
2023-03-29T21:39:16.553Z,29.73
2023-03-29T21:41:43.410Z,29.73
2023-03-29T21:44:10.364Z,30.27
2023-03-29T21:46:37.248Z,29.50
2023-03-29T21:49:04.191Z,31.10
2023-03-29T21:51:31.007Z,29.83
2023-03-29T21:53:57.767Z,30.67
2023-03-29T21:56:24.622Z,29.37
2023-03-29T21:58:51.449Z,29.17
2023-03-29T22:01:18.395Z,31.10
2023-03-29T22:03:46.230Z,28.87
2023-03-29T22:06:14.373Z,30.00
2023-03-29T22:08:41.745Z,30.30
2023-03-29T22:11:13.994Z,30.07
2023-03-29T22:13:41.021Z,29.90
2023-03-29T22:16:09.371Z,30.63
2023-03-29T22:18:43.338Z,30.53
2023-03-29T22:21:16.373Z,28.50
2023-03-29T22:23:45.508Z,28.47
2023-03-29T22:26:14.199Z,29.93
2023-03-29T22:28:41.731Z,28.50
2023-03-29T22:31:11.824Z,29.57
2023-03-29T22:33:39.253Z,29.03
2023-03-29T22:36:22.028Z,28.00
2023-03-29T22:38:50.603Z,28.83
2023-03-29T22:41:19.161Z,28.10
2023-03-29T22:43:46.134Z,26.50
2023-03-29T22:46:14.011Z,27.07
2023-03-29T22:48:41.466Z,27.23
2023-03-29T22:51:08.495Z,27.10
2023-03-29T22:53:35.510Z,26.20
2023-03-29T22:56:02.651Z,26.13
2023-03-29T22:58:29.600Z,26.47
2023-03-29T23:00:57.735Z,26.67
2023-03-29T23:03:25.112Z,28.70
2023-03-29T23:05:55.073Z,29.27
2023-03-29T23:08:25.704Z,27.37
2023-03-29T23:10:53.077Z,28.03
2023-03-29T23:13:24.142Z,27.27
2023-03-29T23:15:52.516Z,26.67
2023-03-29T23:18:21.135Z,27.63
2023-03-29T23:20:49.391Z,27.20
2023-03-29T23:23:17.778Z,28.33
2023-03-29T23:25:47.586Z,29.27
2023-03-29T23:28:21.505Z,26.90
2023-03-29T23:31:00.496Z,28.03
2023-03-29T23:33:30.643Z,27.60
2023-03-29T23:35:57.479Z,29.30
2023-03-29T23:38:24.267Z,28.83
2023-03-29T23:40:58.729Z,29.60
2023-03-29T23:43:32.902Z,27.60
2023-03-29T23:46:01.795Z,27.83
2023-03-29T23:48:29.382Z,28.00
2023-03-29T23:50:59.312Z,27.43
2023-03-29T23:53:28.735Z,28.80
2023-03-29T23:55:58.246Z,28.37
2023-03-29T23:58:25.041Z,29.50
